Time;durP1;ratioP1;P1;durP2;ratioP2;P2;SDS_P1;SDS_P2;PMS_P1;PMS_P2;Temp;Humidity;BMP_temperature;BMP_pressure;BME280_temperature;BME280_humidity;BME280_pressure;Samples;Min_cycle;Max_cycle;Signal;HPM_P1;HPM_P2
2022/08/22 00:01:07;;;;;;;6.77;2.80;;;14.90;94.20;;;;;;5034348;28;20463;-51
2022/08/22 00:03:42;;;;;;;3.70;2.47;;;14.90;92.00;;;;;;5026433;28;20488;-51
2022/08/22 00:06:16;;;;;;;4.97;2.90;;;14.90;21.80;;;;;;5029939;28;20516;-51
2022/08/22 00:08:56;;;;;;;2.00;1.90;;;14.90;99.90;;;;;;5031377;28;20528;-51
2022/08/22 00:11:33;;;;;;;3.13;2.80;;;14.90;99.90;;;;;;5046433;28;21012;-52
2022/08/22 00:14:06;;;;;;;2.90;2.43;;;14.80;24.00;;;;;;5026009;28;20505;-51
2022/08/22 00:16:38;;;;;;;2.70;2.30;;;14.80;27.70;;;;;;5024586;28;20512;-52
2022/08/22 00:19:13;;;;;;;3.00;2.80;;;14.80;29.10;;;;;;5035649;28;20470;-52
2022/08/22 00:21:46;;;;;;;3.30;2.40;;;14.70;23.00;;;;;;5032716;28;20961;-52
2022/08/22 00:24:22;;;;;;;6.30;2.97;;;14.70;25.70;;;;;;5031356;28;21007;-52
2022/08/22 00:26:55;;;;;;;2.60;2.10;;;14.70;99.90;;;;;;5033721;28;20458;-52
2022/08/22 00:29:26;;;;;;;2.97;2.50;;;14.60;72.00;;;;;;5035844;28;20529;-53
2022/08/22 00:32:06;;;;;;;2.80;2.40;;;14.50;23.40;;;;;;5030265;28;20524;-52
2022/08/22 00:34:36;;;;;;;7.43;3.07;;;14.50;99.90;;;;;;5024255;28;20482;-52
2022/08/22 00:37:07;;;;;;;2.70;2.50;;;14.50;99.90;;;;;;5035923;28;20486;-51
2022/08/22 00:39:40;;;;;;;5.10;2.37;;;14.40;79.20;;;;;;5029299;28;20515;-51
2022/08/22 00:42:41;;;;;;;3.53;2.73;;;14.40;99.90;;;;;;5040850;28;20489;-51
2022/08/22 00:45:33;;;;;;;1.80;1.70;;;14.30;99.90;;;;;;5001694;28;20906;-52
2022/08/22 00:48:18;;;;;;;3.03;2.10;;;14.30;99.90;;;;;;5042753;28;20457;-52
2022/08/22 00:51:09;;;;;;;2.50;2.40;;;14.20;99.90;;;;;;5027057;28;20964;-51
2022/08/22 00:53:53;;;;;;;3.27;2.67;;;14.20;99.90;;;;;;5027791;28;20477;-51
2022/08/22 00:56:45;;;;;;;2.60;2.27;;;14.20;99.90;;;;;;5027877;28;20461;-51
2022/08/22 00:59:39;;;;;;;2.20;2.10;;;14.20;99.90;;;;;;5034638;28;20454;-53
2022/08/22 01:02:20;;;;;;;3.33;3.03;;;14.20;99.90;;;;;;5024247;28;20512;-51
2022/08/22 01:04:58;;;;;;;3.53;3.20;;;14.10;99.90;;;;;;5026290;28;20494;-51
2022/08/22 01:07:40;;;;;;;3.10;2.77;;;14.10;99.90;;;;;;5031000;28;20459;-51
2022/08/22 01:10:23;;;;;;;2.23;2.07;;;14.10;99.90;;;;;;5029293;28;20864;-51
2022/08/22 01:13:11;;;;;;;2.50;2.20;;;14.10;99.90;;;;;;5036786;28;20465;-51
2022/08/22 01:15:41;;;;;;;4.53;2.70;;;14.00;99.90;;;;;;5022630;28;20499;-52
2022/08/22 01:18:31;;;;;;;2.50;2.30;;;14.00;99.90;;;;;;5028892;28;20490;-51
2022/08/22 01:21:33;;;;;;;3.10;2.80;;;14.00;99.90;;;;;;5025506;28;20512;-52
2022/08/22 01:24:28;;;;;;;2.83;2.50;;;13.90;99.90;;;;;;5026933;28;20556;-52
2022/08/22 01:27:36;;;;;;;3.83;2.90;;;13.90;99.90;;;;;;5031147;28;20815;-51
2022/08/22 01:30:22;;;;;;;3.03;2.83;;;13.90;99.90;;;;;;5032047;28;20467;-51
2022/08/22 01:33:22;;;;;;;2.80;2.60;;;13.80;99.90;;;;;;5028452;28;20512;-52
2022/08/22 01:36:33;;;;;;;4.13;2.57;;;13.80;99.90;;;;;;5030354;28;20467;-51
2022/08/22 01:39:29;;;;;;;3.23;2.80;;;13.80;99.90;;;;;;5030796;28;20479;-52
2022/08/22 01:42:37;;;;;;;8.87;2.17;;;13.70;99.90;;;;;;5041847;28;20503;-51
2022/08/22 01:45:31;;;;;;;5.37;2.43;;;13.70;99.90;;;;;;5024585;28;20505;-51
2022/08/22 01:48:06;;;;;;;2.50;2.30;;;13.70;99.90;;;;;;5025980;28;20509;-52
2022/08/22 01:50:37;;;;;;;2.90;2.60;;;13.60;99.90;;;;;;5021356;28;20509;-52
2022/08/22 01:53:10;;;;;;;3.00;2.40;;;13.50;99.90;;;;;;5026459;28;20454;-51
2022/08/22 01:55:48;;;;;;;5.50;3.10;;;13.50;99.90;;;;;;5023311;28;20528;-52
2022/08/22 01:58:18;;;;;;;3.93;1.90;;;13.50;99.90;;;;;;5025936;28;20536;-52
2022/08/22 02:01:01;;;;;;;2.27;2.07;;;13.50;99.90;;;;;;5035598;28;20532;-52
2022/08/22 02:03:31;;;;;;;3.57;2.50;;;13.60;99.90;;;;;;5029292;28;20548;-51
2022/08/22 02:06:02;;;;;;;2.70;2.50;;;13.50;99.90;;;;;;5024774;28;20458;-51
2022/08/22 02:08:40;;;;;;;4.13;2.43;;;13.50;99.90;;;;;;5027640;28;20525;-52
2022/08/22 02:11:10;;;;;;;5.70;2.37;;;13.40;99.90;;;;;;5029225;28;20516;-52
2022/08/22 02:13:48;;;;;;;2.53;2.33;;;13.40;99.90;;;;;;5034641;28;20556;-51
2022/08/22 02:16:22;;;;;;;4.20;2.37;;;13.30;99.90;;;;;;5028213;28;20544;-52
2022/08/22 02:18:59;;;;;;;2.60;2.10;;;13.30;99.90;;;;;;5026477;28;20548;-52
2022/08/22 02:21:31;;;;;;;2.20;2.10;;;13.30;99.90;;;;;;5029000;28;20458;-52
2022/08/22 02:24:04;;;;;;;2.33;2.17;;;13.30;99.90;;;;;;5027420;28;20482;-52
2022/08/22 02:26:44;;;;;;;2.80;2.30;;;13.20;99.90;;;;;;5039208;28;20458;-52
2022/08/22 02:29:15;;;;;;;2.43;2.27;;;13.20;99.90;;;;;;5032045;28;20547;-51
2022/08/22 02:31:45;;;;;;;2.30;2.20;;;13.20;99.90;;;;;;5029920;28;20451;-52
2022/08/22 02:34:28;;;;;;;2.93;2.40;;;13.30;99.90;;;;;;5037583;28;20529;-52
2022/08/22 02:37:03;;;;;;;2.53;2.43;;;13.20;99.90;;;;;;5029761;28;20465;-52
2022/08/22 02:39:35;;;;;;;2.60;2.40;;;13.20;99.90;;;;;;5034554;28;20458;-52
2022/08/22 02:42:16;;;;;;;1.77;1.67;;;13.20;99.90;;;;;;5034983;28;20808;-52
2022/08/22 02:44:55;;;;;;;5.03;2.80;;;13.20;99.90;;;;;;5023525;28;20554;-53
2022/08/22 02:47:31;;;;;;;2.33;2.17;;;13.10;99.90;;;;;;5028275;28;20513;-51
2022/08/22 02:50:06;;;;;;;8.93;2.70;;;13.20;99.90;;;;;;5018189;28;20459;-52
2022/08/22 02:52:46;;;;;;;2.77;2.57;;;13.10;99.90;;;;;;5032617;28;20461;-51
2022/08/22 02:55:21;;;;;;;3.03;2.17;;;13.10;99.90;;;;;;5024631;28;20542;-51
2022/08/22 02:57:53;;;;;;;3.00;2.80;;;13.10;99.90;;;;;;5035253;28;20480;-51
2022/08/22 03:00:27;;;;;;;4.33;2.07;;;13.10;99.90;;;;;;5033260;28;20487;-51
2022/08/22 03:03:05;;;;;;;3.80;2.57;;;13.00;99.90;;;;;;5026087;28;20510;-52
2022/08/22 03:05:51;;;;;;;4.70;2.20;;;13.00;99.90;;;;;;5023527;28;20473;-51
2022/08/22 03:08:23;;;;;;;2.73;2.33;;;13.00;99.90;;;;;;5031948;28;20454;-51
2022/08/22 03:11:02;;;;;;;4.40;2.50;;;13.00;99.90;;;;;;5028591;28;20467;-52
2022/08/22 03:13:39;;;;;;;4.00;2.00;;;12.90;99.90;;;;;;5040592;28;20454;-51
2022/08/22 03:16:15;;;;;;;2.70;2.50;;;12.90;99.90;;;;;;5024160;28;20538;-51
2022/08/22 03:18:48;;;;;;;2.70;2.50;;;12.80;99.90;;;;;;5033871;28;20474;-53
2022/08/22 03:21:24;;;;;;;2.70;2.50;;;12.80;99.90;;;;;;5029828;28;20462;-52
2022/08/22 03:23:55;;;;;;;3.40;2.33;;;13.00;99.90;;;;;;5031341;28;20486;-52
2022/08/22 03:26:30;;;;;;;5.83;2.20;;;13.00;99.90;;;;;;5031076;28;20496;-52
2022/08/22 03:29:04;;;;;;;2.23;1.73;;;13.00;99.90;;;;;;5032007;28;20581;-51
2022/08/22 03:31:32;;;;;;;2.20;1.67;;;13.00;99.90;;;;;;5026889;28;20454;-52
2022/08/22 03:34:21;;;;;;;3.53;2.63;;;13.00;99.90;;;;;;5038057;28;20497;-53
2022/08/22 03:37:00;;;;;;;1.87;1.77;;;13.00;99.90;;;;;;5025925;28;20458;-52
2022/08/22 03:39:43;;;;;;;2.80;2.60;;;13.00;99.90;;;;;;5029128;28;20478;-53
2022/08/22 03:42:30;;;;;;;2.47;2.00;;;13.00;99.90;;;;;;5038630;28;20463;-51
2022/08/22 03:45:34;;;;;;;1.80;1.70;;;13.10;99.90;;;;;;5037847;28;20517;-52
2022/08/22 03:48:41;;;;;;;9.20;1.90;;;13.10;99.90;;;;;;5030711;28;20851;-53
2022/08/22 03:51:32;;;;;;;10.53;2.03;;;13.00;99.90;;;;;;5035491;28;20462;-51
2022/08/22 03:54:26;;;;;;;2.50;2.17;;;13.00;99.90;;;;;;5033318;28;21735;-53
2022/08/22 03:57:25;;;;;;;2.03;1.93;;;13.00;99.90;;;;;;5019891;28;20467;-54
2022/08/22 04:00:23;;;;;;;8.17;2.70;;;13.00;99.90;;;;;;5031066;28;20490;-52
2022/08/22 04:03:30;;;;;;;2.87;2.00;;;13.00;99.90;;;;;;4993997;28;20457;-53
2022/08/22 04:06:37;;;;;;;4.20;2.10;;;13.10;99.90;;;;;;5027000;28;20517;-53
2022/08/22 04:09:40;;;;;;;2.70;1.93;;;13.00;99.90;;;;;;5030251;28;21216;-51
2022/08/22 04:12:22;;;;;;;2.30;2.10;;;13.00;99.90;;;;;;5022995;28;20516;-51
2022/08/22 04:15:19;;;;;;;3.90;1.97;;;12.90;99.90;;;;;;5040408;22;20760;-53
2022/08/22 04:18:14;;;;;;;2.50;1.93;;;12.90;99.90;;;;;;5013960;28;20519;-53
2022/08/22 04:21:05;;;;;;;3.03;2.13;;;12.90;99.90;;;;;;5002764;28;20464;-54
2022/08/22 04:24:01;;;;;;;2.00;1.63;;;13.00;99.90;;;;;;5011088;28;20818;-56
2022/08/22 04:26:36;;;;;;;3.43;2.03;;;12.90;99.90;;;;;;5014399;28;20487;-56
2022/08/22 04:29:08;;;;;;;2.93;2.20;;;13.00;99.90;;;;;;5011853;28;20463;-55
2022/08/22 04:31:45;;;;;;;3.70;2.20;;;13.00;99.90;;;;;;5006212;28;20471;-55
2022/08/22 04:34:20;;;;;;;2.37;2.07;;;13.10;99.90;;;;;;5008843;28;20984;-55
2022/08/22 04:36:52;;;;;;;6.73;2.90;;;13.10;99.90;;;;;;5002705;28;20910;-55
2022/08/22 04:39:37;;;;;;;2.90;2.53;;;13.20;99.90;;;;;;5004835;28;20877;-55
2022/08/22 04:42:10;;;;;;;6.97;6.27;;;13.30;99.90;;;;;;5008288;28;20522;-55
2022/08/22 04:44:41;;;;;;;5.97;2.93;;;13.30;99.90;;;;;;5004910;28;20522;-60
2022/08/22 04:47:14;;;;;;;2.73;1.90;;;13.40;99.90;;;;;;5007134;28;20464;-56
2022/08/22 04:49:48;;;;;;;5.37;2.23;;;13.40;99.90;;;;;;5006324;28;20479;-54
2022/08/22 04:52:27;;;;;;;3.60;2.43;;;13.50;99.90;;;;;;5005456;28;20956;-54
2022/08/22 04:55:03;;;;;;;2.60;2.37;;;13.50;99.90;;;;;;5004219;28;21096;-55
2022/08/22 04:57:38;;;;;;;2.67;2.47;;;13.50;99.90;;;;;;5022982;28;20496;-55
2022/08/22 05:00:09;;;;;;;3.10;2.40;;;13.50;99.90;;;;;;5013851;28;20521;-55
2022/08/22 05:02:39;;;;;;;4.93;2.30;;;13.60;99.90;;;;;;5017289;28;20459;-55
2022/08/22 05:05:12;;;;;;;3.17;2.73;;;13.70;99.90;;;;;;5008940;28;21004;-55
2022/08/22 05:07:43;;;;;;;3.50;2.43;;;13.70;99.90;;;;;;5014710;28;20529;-55
2022/08/22 05:10:19;;;;;;;2.53;2.23;;;13.70;99.90;;;;;;5012873;28;20464;-54
2022/08/22 05:12:52;;;;;;;2.97;2.67;;;13.80;99.90;;;;;;5016811;28;20493;-54
2022/08/22 05:15:22;;;;;;;4.33;2.50;;;13.80;99.90;;;;;;5012194;28;20495;-52
2022/08/22 05:17:51;;;;;;;2.60;2.40;;;13.90;99.90;;;;;;5010950;28;20470;-54
2022/08/22 05:20:22;;;;;;;3.20;2.50;;;13.90;99.90;;;;;;5009937;28;20471;-54
2022/08/22 05:22:51;;;;;;;6.43;2.20;;;13.90;99.90;;;;;;5012275;28;20464;-54
2022/08/22 05:25:24;;;;;;;6.17;2.50;;;14.00;99.90;;;;;;5010101;28;20479;-53
2022/08/22 05:28:01;;;;;;;4.13;2.30;;;13.90;99.90;;;;;;5021788;28;20460;-52
2022/08/22 05:30:31;;;;;;;3.83;2.27;;;14.00;99.90;;;;;;5007845;28;20545;-53
2022/08/22 05:33:04;;;;;;;4.30;2.70;;;14.00;99.90;;;;;;5003435;28;20878;-55
2022/08/22 05:35:35;;;;;;;2.50;2.30;;;14.10;99.90;;;;;;5005053;28;21619;-53
2022/08/22 05:38:04;;;;;;;2.40;2.23;;;14.00;99.90;;;;;;5017706;28;20470;-55
2022/08/22 05:40:33;;;;;;;2.57;2.37;;;14.10;99.90;;;;;;5010551;28;20465;-54
2022/08/22 05:42:59;;;;;;;2.50;2.30;;;14.20;99.90;;;;;;5011017;28;20467;-54
2022/08/22 05:45:27;;;;;;;3.00;2.50;;;14.20;99.90;;;;;;4999964;28;20492;-55
2022/08/22 05:47:58;;;;;;;3.87;2.80;;;14.30;99.90;;;;;;5010478;28;20459;-56
2022/08/22 05:50:34;;;;;;;2.13;2.03;;;14.30;99.90;;;;;;5009676;28;20459;-54
2022/08/22 05:53:08;;;;;;;2.60;2.40;;;14.40;99.90;;;;;;5001703;28;20489;-54
2022/08/22 05:55:43;;;;;;;3.07;2.53;;;14.40;99.90;;;;;;5006655;28;20553;-54
2022/08/22 05:58:40;;;;;;;2.70;2.50;;;14.50;99.90;;;;;;5007519;28;20459;-54
2022/08/22 06:01:20;;;;;;;2.33;2.13;;;14.60;99.90;;;;;;5000954;28;20962;-55
2022/08/22 06:03:56;;;;;;;3.80;2.77;;;14.70;99.90;;;;;;5012274;28;20470;-54
2022/08/22 06:06:27;;;;;;;3.43;2.97;;;14.70;99.90;;;;;;4999627;28;20538;-54
2022/08/22 06:09:01;;;;;;;3.43;2.50;;;14.80;99.90;;;;;;5001894;28;20459;-55
2022/08/22 06:11:33;;;;;;;2.60;2.50;;;14.90;99.90;;;;;;5011884;28;20962;-55
2022/08/22 06:14:12;;;;;;;7.20;2.80;;;15.00;99.90;;;;;;5011104;28;21012;-55
2022/08/22 06:16:44;;;;;;;3.93;3.33;;;15.00;99.90;;;;;;4999230;28;21069;-53
2022/08/22 06:19:14;;;;;;;4.43;2.97;;;15.10;99.90;;;;;;5013126;28;20490;-54
2022/08/22 06:21:47;;;;;;;2.90;1.97;;;15.30;99.90;;;;;;5006852;28;20461;-54
2022/08/22 06:24:20;;;;;;;6.30;2.63;;;15.30;99.90;;;;;;5007766;28;20468;-54
2022/08/22 06:26:49;;;;;;;12.00;3.00;;;15.40;99.90;;;;;;5008407;28;20467;-55
2022/08/22 06:29:29;;;;;;;4.30;2.80;;;15.50;99.90;;;;;;5006762;28;20483;-55
2022/08/22 06:31:57;;;;;;;5.43;2.93;;;15.60;99.90;;;;;;5005074;28;20491;-54
2022/08/22 06:34:27;;;;;;;3.43;2.70;;;15.70;99.90;;;;;;5011419;28;20451;-54
2022/08/22 06:36:57;;;;;;;2.60;2.20;;;15.80;99.90;;;;;;5001119;28;20950;-55
2022/08/22 06:39:28;;;;;;;3.57;2.77;;;15.90;99.90;;;;;;5009233;28;20597;-54
2022/08/22 06:42:01;;;;;;;9.87;3.40;;;15.90;99.90;;;;;;5001759;28;20478;-54
2022/08/22 06:44:31;;;;;;;5.53;2.87;;;16.10;99.90;;;;;;5013811;28;21063;-54
2022/08/22 06:47:00;;;;;;;10.80;2.97;;;16.20;99.90;;;;;;5015815;28;20464;-54
2022/08/22 06:49:28;;;;;;;3.60;3.10;;;16.20;99.90;;;;;;5025670;28;20460;-54
2022/08/22 06:52:01;;;;;;;3.00;2.80;;;16.30;99.90;;;;;;4997895;28;20515;-54
2022/08/22 06:54:32;;;;;;;3.30;2.93;;;16.40;86.80;;;;;;5007271;28;20459;-53
2022/08/22 06:56:59;;;;;;;4.47;2.70;;;16.50;80.50;;;;;;5003806;28;20537;-55
2022/08/22 06:59:29;;;;;;;5.70;3.17;;;16.60;84.00;;;;;;5010037;28;21302;-54
2022/08/22 07:02:02;;;;;;;5.17;2.80;;;16.70;80.70;;;;;;5006969;28;21028;-54
2022/08/22 07:04:31;;;;;;;5.37;2.90;;;16.80;20.00;;;;;;5008185;28;20454;-54
2022/08/22 07:07:00;;;;;;;3.63;2.80;;;16.90;22.80;;;;;;5004509;28;20464;-54
2022/08/22 07:09:31;;;;;;;3.20;2.60;;;17.00;25.20;;;;;;5004884;28;20463;-54
2022/08/22 07:12:02;;;;;;;10.23;3.10;;;17.20;27.80;;;;;;5013855;28;20471;-54
2022/08/22 07:14:32;;;;;;;3.10;2.77;;;17.30;30.50;;;;;;4997892;28;20505;-54
2022/08/22 07:17:02;;;;;;;3.07;2.70;;;17.40;35.80;;;;;;5005515;28;21024;-54
2022/08/22 07:19:32;;;;;;;5.80;3.60;;;17.50;40.10;;;;;;5017044;28;21111;-54
2022/08/22 07:22:12;;;;;;;9.33;3.07;;;17.70;45.80;;;;;;5011225;28;20467;-54
2022/08/22 07:24:49;;;;;;;5.03;2.80;;;17.70;53.60;;;;;;5017235;28;20524;-55
2022/08/22 07:27:30;;;;;;;3.50;2.57;;;17.90;57.90;;;;;;5005726;28;20506;-55
2022/08/22 07:30:02;;;;;;;6.30;2.80;;;18.10;67.40;;;;;;5004490;28;20465;-55
2022/08/22 07:32:40;;;;;;;4.23;2.87;;;18.20;73.70;;;;;;5003141;28;20542;-54
2022/08/22 07:35:10;;;;;;;4.47;2.50;;;18.30;74.20;;;;;;5006359;28;20898;-55
2022/08/22 07:37:49;;;;;;;2.87;2.50;;;18.40;79.50;;;;;;5004654;28;20508;-55
2022/08/22 07:40:23;;;;;;;2.50;2.30;;;18.50;86.50;;;;;;5009712;28;20499;-55
2022/08/22 07:42:56;;;;;;;2.90;2.60;;;18.60;99.90;;;;;;5011186;28;20468;-56
2022/08/22 07:45:32;;;;;;;2.50;2.27;;;18.70;99.90;;;;;;5000978;28;20488;-56
2022/08/22 07:48:16;;;;;;;7.20;2.10;;;18.80;99.90;;;;;;5011052;28;20999;-55
2022/08/22 07:50:56;;;;;;;2.73;2.07;;;18.90;99.90;;;;;;5014253;28;20505;-55
2022/08/22 07:53:34;;;;;;;5.33;2.13;;;19.00;99.90;;;;;;5019808;28;20513;-54
2022/08/22 07:56:03;;;;;;;4.10;2.30;;;19.00;99.90;;;;;;5016188;28;20476;-55
2022/08/22 07:58:32;;;;;;;5.40;1.80;;;19.10;99.90;;;;;;5025625;28;20443;-55
2022/08/22 08:00:59;;;;;;;4.83;2.10;;;19.10;99.90;;;;;;5009032;28;20491;-54
2022/08/22 08:03:29;;;;;;;2.10;1.83;;;19.20;99.90;;;;;;5011103;28;20514;-54
2022/08/22 08:05:56;;;;;;;3.87;1.83;;;19.20;99.90;;;;;;5009862;28;20865;-55
2022/08/22 08:08:27;;;;;;;2.90;2.00;;;19.30;99.90;;;;;;5005472;28;20535;-55
2022/08/22 08:10:56;;;;;;;2.70;2.07;;;19.40;99.90;;;;;;5009112;28;20467;-54
2022/08/22 08:13:28;;;;;;;2.87;2.43;;;19.40;99.90;;;;;;5006517;28;20471;-55
2022/08/22 08:15:55;;;;;;;5.73;1.87;;;19.50;99.90;;;;;;5024445;28;21033;-55
2022/08/22 08:18:26;;;;;;;2.03;1.83;;;19.60;99.90;;;;;;5010403;28;20874;-54
2022/08/22 08:20:57;;;;;;;3.30;1.93;;;19.70;99.90;;;;;;5005630;28;20571;-54
2022/08/22 08:23:28;;;;;;;5.13;2.00;;;19.80;99.90;;;;;;4997460;28;20530;-53
2022/08/22 08:26:03;;;;;;;3.30;1.20;;;19.90;99.90;;;;;;5005528;28;20518;-53
2022/08/22 08:28:36;;;;;;;5.00;3.17;;;20.00;99.90;;;;;;5010081;28;20838;-52
2022/08/22 08:31:08;;;;;;;7.50;2.20;;;20.10;99.90;;;;;;5007193;28;20447;-53
2022/08/22 08:33:39;;;;;;;2.57;1.93;;;20.20;99.90;;;;;;5005088;28;20518;-54
2022/08/22 08:36:16;;;;;;;2.27;1.90;;;20.30;37.70;;;;;;5005538;28;20487;-53
2022/08/22 08:38:50;;;;;;;4.00;1.80;;;20.40;36.70;;;;;;5007512;28;20482;-52
2022/08/22 08:41:54;;;;;;;5.63;1.67;;;20.50;34.70;;;;;;5007126;28;20460;-53
2022/08/22 08:44:44;;;;;;;6.20;1.80;;;20.60;40.40;;;;;;5003997;28;20455;-53
2022/08/22 08:47:51;;;;;;;3.00;1.90;;;20.60;55.60;;;;;;5012058;28;20835;-53
2022/08/22 08:50:29;;;;;;;2.33;1.60;;;20.70;57.60;;;;;;4951220;28;20459;-53
2022/08/22 08:53:38;;;;;;;13.97;2.50;;;20.80;55.10;;;;;;4993999;28;20464;-53
2022/08/22 08:56:15;;;;;;;2.20;1.90;;;20.90;55.00;;;;;;4979386;28;20492;-54
2022/08/22 08:58:51;;;;;;;3.80;2.00;;;21.00;70.70;;;;;;5006243;28;20551;-53
2022/08/22 09:01:34;;;;;;;2.73;1.80;;;21.10;73.70;;;;;;5007515;28;20589;-54
2022/08/22 09:04:37;;;;;;;3.90;1.83;;;21.20;99.90;;;;;;5020241;28;20481;-54
2022/08/22 09:07:37;;;;;;;4.80;1.67;;;21.30;99.90;;;;;;5006293;28;20463;-54
2022/08/22 09:10:43;;;;;;;3.30;2.10;;;21.40;99.90;;;;;;5002380;28;20460;-54
2022/08/22 09:13:40;;;;;;;8.10;2.20;;;21.40;99.90;;;;;;5007817;28;20467;-54
2022/08/22 09:16:24;;;;;;;9.57;2.60;;;21.40;99.90;;;;;;5010579;28;20492;-53
2022/08/22 09:19:22;;;;;;;2.93;1.80;;;21.40;99.90;;;;;;5008426;28;20478;-53
2022/08/22 09:22:22;;;;;;;6.80;2.47;;;21.40;99.90;;;;;;5005449;28;20547;-54
2022/08/22 09:25:20;;;;;;;8.40;2.03;;;21.50;99.90;;;;;;5009833;28;20486;-54
2022/08/22 09:27:55;;;;;;;5.03;2.03;;;21.50;99.90;;;;;;5005983;28;20468;-54
2022/08/22 09:30:26;;;;;;;5.17;1.97;;;21.50;99.90;;;;;;5004236;28;20529;-54
2022/08/22 09:32:57;;;;;;;2.03;1.80;;;21.60;99.90;;;;;;5016703;28;20467;-54
2022/08/22 09:35:30;;;;;;;6.13;1.87;;;21.60;99.90;;;;;;5006030;28;20514;-54
2022/08/22 09:38:22;;;;;;;5.87;1.93;;;21.70;99.90;;;;;;5007156;28;20525;-53
2022/08/22 09:40:59;;;;;;;2.20;1.60;;;21.80;99.90;;;;;;5015572;28;20490;-54
2022/08/22 09:43:35;;;;;;;4.10;2.17;;;21.80;99.90;;;;;;5013371;28;20471;-54
2022/08/22 09:46:11;;;;;;;2.73;1.50;;;21.90;99.90;;;;;;5010420;28;20483;-54
2022/08/22 09:48:47;;;;;;;2.80;1.80;;;22.00;99.90;;;;;;5006581;28;20464;-54
2022/08/22 09:51:24;;;;;;;6.67;2.70;;;22.10;99.90;;;;;;5002353;28;20506;-54
2022/08/22 09:54:06;;;;;;;3.17;1.83;;;22.10;99.90;;;;;;5009558;28;20533;-54
2022/08/22 09:56:38;;;;;;;7.07;2.03;;;22.30;99.90;;;;;;5001193;28;21073;-54
2022/08/22 09:59:09;;;;;;;4.87;1.47;;;22.30;99.90;;;;;;5006281;28;20460;-54
2022/08/22 10:01:43;;;;;;;5.50;1.33;;;22.40;99.90;;;;;;5004372;28;20495;-54
2022/08/22 10:04:46;;;;;;;2.60;1.80;;;22.50;99.90;;;;;;5011695;28;20895;-54
2022/08/22 10:07:31;;;;;;;3.00;1.70;;;22.60;99.90;;;;;;5001984;28;20514;-55
2022/08/22 10:10:05;;;;;;;4.53;1.40;;;22.70;99.90;;;;;;5006873;28;20818;-53
2022/08/22 10:12:40;;;;;;;6.03;1.83;;;22.70;99.90;;;;;;5003301;28;20467;-53
2022/08/22 10:15:18;;;;;;;1.47;1.27;;;22.70;99.90;;;;;;5013398;23;20498;-52
2022/08/22 10:17:57;;;;;;;4.83;2.03;;;22.70;99.90;;;;;;5024149;28;20493;-51
2022/08/22 10:20:30;;;;;;;4.60;1.63;;;22.70;99.90;;;;;;5026916;28;20478;-52
2022/08/22 10:23:07;;;;;;;3.80;1.90;;;22.60;99.90;;;;;;5028119;28;20467;-51
2022/08/22 10:25:38;;;;;;;3.10;1.87;;;22.70;99.90;;;;;;5024120;28;20544;-52
2022/08/22 10:28:14;;;;;;;4.50;1.60;;;22.80;99.90;;;;;;5030748;28;20454;-52
2022/08/22 10:30:49;;;;;;;4.30;1.40;;;22.80;99.90;;;;;;5017210;28;20465;-52
2022/08/22 10:33:26;;;;;;;3.60;1.60;;;22.80;99.90;;;;;;5020243;28;20483;-52
2022/08/22 10:36:01;;;;;;;4.10;1.70;;;22.90;99.90;;;;;;5031315;28;20482;-51
2022/08/22 10:38:31;;;;;;;6.00;1.83;;;23.00;99.90;;;;;;5026244;28;20465;-51
2022/08/22 10:41:05;;;;;;;2.30;1.63;;;23.10;99.90;;;;;;5026174;28;20486;-50
2022/08/22 10:43:40;;;;;;;1.97;1.67;;;23.10;99.90;;;;;;5028971;28;21905;-51
2022/08/22 10:46:12;;;;;;;15.67;1.57;;;23.20;99.90;;;;;;5025225;28;20893;-51
2022/08/22 10:48:50;;;;;;;3.43;1.33;;;23.20;99.90;;;;;;5020921;28;20932;-51
2022/08/22 10:51:23;;;;;;;2.93;1.63;;;23.10;99.90;;;;;;5026664;28;20458;-52
2022/08/22 10:54:00;;;;;;;2.13;1.30;;;23.00;99.90;;;;;;5032921;28;20458;-51
2022/08/22 10:56:33;;;;;;;2.87;1.53;;;22.90;99.90;;;;;;5024753;28;21066;-51
2022/08/22 10:59:08;;;;;;;3.83;1.50;;;22.80;99.90;;;;;;5020361;28;22335;-51
2022/08/22 11:01:42;;;;;;;3.70;2.30;;;22.70;99.90;;;;;;5024017;28;20486;-52
2022/08/22 11:04:24;;;;;;;2.53;1.60;;;22.70;99.90;;;;;;5024008;28;20455;-51
2022/08/22 11:07:00;;;;;;;3.47;2.00;;;22.90;99.90;;;;;;5026376;28;20490;-53
2022/08/22 11:09:33;;;;;;;3.80;1.90;;;23.00;99.90;;;;;;5029420;28;20462;-51
2022/08/22 11:12:06;;;;;;;9.83;1.73;;;23.00;99.90;;;;;;5017023;28;20616;-52
2022/08/22 11:14:57;;;;;;;4.87;2.30;;;23.10;99.90;;;;;;5022285;28;20878;-52
2022/08/22 11:17:48;;;;;;;7.10;1.80;;;23.30;99.90;;;;;;5024308;28;20467;-52
2022/08/22 11:20:22;;;;;;;5.30;1.30;;;23.30;99.90;;;;;;5022415;28;20905;-51
2022/08/22 11:23:10;;;;;;;1.63;1.53;;;23.30;99.90;;;;;;5024273;28;20461;-51
2022/08/22 11:25:50;;;;;;;5.60;1.83;;;23.30;99.90;;;;;;5027613;28;20486;-50
2022/08/22 11:28:59;;;;;;;6.33;1.40;;;23.40;99.90;;;;;;5027129;28;20459;-52
2022/08/22 11:31:42;;;;;;;2.90;1.50;;;23.30;99.90;;;;;;4999478;28;20506;-52
2022/08/22 11:34:16;;;;;;;4.43;2.00;;;23.40;99.90;;;;;;5024416;28;20490;-52
2022/08/22 11:36:50;;;;;;;3.33;1.63;;;23.40;99.90;;;;;;5025157;28;21042;-52
2022/08/22 11:39:24;;;;;;;5.73;1.90;;;23.50;99.90;;;;;;5023923;28;20461;-52
2022/08/22 11:41:58;;;;;;;2.53;1.73;;;23.60;99.90;;;;;;5023192;28;20921;-52
2022/08/22 11:44:30;;;;;;;1.67;1.57;;;23.60;99.90;;;;;;5019143;28;20469;-51
2022/08/22 11:47:00;;;;;;;2.43;1.70;;;23.60;99.90;;;;;;5025956;28;20814;-51
2022/08/22 11:49:44;;;;;;;7.83;3.03;;;23.60;99.90;;;;;;5024536;28;20471;-51
2022/08/22 11:52:21;;;;;;;2.20;1.73;;;23.70;99.90;;;;;;5020305;28;20487;-51
2022/08/22 11:55:20;;;;;;;2.10;1.50;;;23.80;99.90;;;;;;5025672;28;20558;-51
2022/08/22 11:57:49;;;;;;;2.53;1.50;;;23.80;99.90;;;;;;5013471;28;22415;-52
2022/08/22 12:00:26;;;;;;;4.20;1.70;;;23.90;99.90;;;;;;5023020;28;21007;-51
2022/08/22 12:03:19;;;;;;;1.40;1.20;;;23.90;99.90;;;;;;5027071;28;20455;-51
2022/08/22 12:05:50;;;;;;;1.63;1.10;;;24.10;99.90;;;;;;5028532;28;20823;-51
2022/08/22 12:08:48;;;;;;;3.70;2.17;;;24.10;99.90;;;;;;5027207;28;20468;-51
2022/08/22 12:11:22;;;;;;;1.77;1.07;;;23.80;99.90;;;;;;5025995;28;20516;-51
2022/08/22 12:13:52;;;;;;;6.33;1.37;;;23.70;99.90;;;;;;5027080;28;20880;-52
2022/08/22 12:16:26;;;;;;;6.77;2.40;;;23.60;99.90;;;;;;5023612;28;20490;-52
2022/08/22 12:19:01;;;;;;;3.00;1.60;;;23.60;99.90;;;;;;5029787;28;20458;-52
2022/08/22 12:22:06;;;;;;;2.43;1.27;;;23.60;99.90;;;;;;5029419;28;20528;-51
2022/08/22 12:24:44;;;;;;;5.33;1.60;;;23.50;99.90;;;;;;5033655;28;20462;-52
2022/08/22 12:27:38;;;;;;;3.00;1.60;;;23.50;99.90;;;;;;5030929;28;20487;-52
2022/08/22 12:30:14;;;;;;;3.47;1.60;;;23.60;99.90;;;;;;5025378;28;20533;-51
2022/08/22 12:33:08;;;;;;;5.87;1.37;;;23.50;99.90;;;;;;5026044;28;20458;-51
2022/08/22 12:35:41;;;;;;;3.03;1.33;;;23.50;99.90;;;;;;5025408;28;20878;-51
2022/08/22 12:38:23;;;;;;;1.53;1.40;;;23.50;99.90;;;;;;5023493;28;20467;-51
2022/08/22 12:41:10;;;;;;;3.03;1.33;;;23.40;99.90;;;;;;5021377;28;20482;-53
2022/08/22 12:43:46;;;;;;;2.77;1.70;;;23.40;99.90;;;;;;5021424;28;20462;-51
2022/08/22 12:46:17;;;;;;;2.60;1.33;;;23.40;99.90;;;;;;5021497;28;20481;-51
2022/08/22 12:48:58;;;;;;;1.90;1.60;;;23.40;99.90;;;;;;5025495;28;20866;-51
2022/08/22 12:51:32;;;;;;;2.90;1.67;;;23.50;99.90;;;;;;5021265;28;21031;-52
2022/08/22 12:54:37;;;;;;;5.77;1.40;;;23.50;99.90;;;;;;5023268;28;20463;-52
2022/08/22 12:57:14;;;;;;;3.57;1.90;;;23.60;99.90;;;;;;5026516;28;21007;-52
2022/08/22 12:59:45;;;;;;;4.07;1.17;;;23.60;99.90;;;;;;5024664;28;20540;-51
2022/08/22 13:02:15;;;;;;;2.07;1.30;;;23.60;99.90;;;;;;5025732;28;20487;-51
2022/08/22 13:04:47;;;;;;;1.73;1.30;;;23.60;99.90;;;;;;5034704;28;20830;-51
2022/08/22 13:07:23;;;;;;;2.20;1.33;;;23.60;99.90;;;;;;5027199;28;20586;-51
2022/08/22 13:09:53;;;;;;;3.27;1.53;;;23.60;99.90;;;;;;5025498;28;21013;-52
2022/08/22 13:12:26;;;;;;;2.50;1.57;;;23.60;99.90;;;;;;5027647;28;20458;-52
2022/08/22 13:14:58;;;;;;;1.73;1.60;;;23.60;99.90;;;;;;5025734;28;20546;-51
2022/08/22 13:17:26;;;;;;;4.43;1.93;;;23.60;99.90;;;;;;5024740;28;20470;-51
2022/08/22 13:19:58;;;;;;;4.00;1.87;;;23.60;99.90;;;;;;5024056;28;20467;-52
2022/08/22 13:22:27;;;;;;;3.23;1.60;;;23.60;99.90;;;;;;5031533;28;20486;-51
2022/08/22 13:25:00;;;;;;;2.70;1.17;;;23.60;99.90;;;;;;5030284;28;20475;-52
2022/08/22 13:27:32;;;;;;;3.60;2.13;;;23.60;99.90;;;;;;5029559;28;20455;-51
2022/08/22 13:30:01;;;;;;;2.10;1.57;;;23.50;99.90;;;;;;5028094;28;20474;-52
2022/08/22 13:32:35;;;;;;;2.60;1.47;;;23.50;99.90;;;;;;5030184;28;20463;-52
2022/08/22 13:35:03;;;;;;;2.90;2.43;;;23.50;99.90;;;;;;5022051;28;20451;-51
2022/08/22 13:37:34;;;;;;;5.40;1.80;;;23.50;99.90;;;;;;5032338;28;20528;-51
2022/08/22 13:40:05;;;;;;;2.37;1.87;;;23.50;99.90;;;;;;5029253;28;20466;-51
2022/08/22 13:42:44;;;;;;;3.97;1.90;;;23.50;99.90;;;;;;5025707;28;20482;-51